Share

Babilonia, Mexico

Retalhuleu (MGRT) Elev 784 ft | 14.53 °N, 91.67 °W | Change Station

Current weather conditions updated 9 minutes ago

Clear
Clear
75 °F
Feels Like 75 °F
N
0
Wind Variable Wind from North
Sunrise 6:52 AM
Sunset 7:24 PM
Moon Waning Gibbous

Today is forecast to be nearly the same temperature as yesterday.

Pressure 29.98 in
Visibility -9999.0 miles
Clouds
Dew Point 66 °F
Humidity 73%
Rainfall 0.00 in
Snow Depth Not available.
UV Not available.
Pollen Not available.
Air Quality Not available.
Flu Activity Not available.
METAR MGRT 201300Z 00000KT CAVOK 24/19 Q1015 A2997 VOL. STA. MARIA Y SANTIAGUITO EN ACTIVIDAD

More Conditions Fewer Conditions

Pressure 29.98 in
Visibility -9999.0 miles
Clouds
Dew Point 66 °F
Humidity 73%
Rainfall 0.00 in
Snow Depth Not available.
UV Not available.
Pollen Not available.
Air Quality Not available.
Flu Activity Not available.
METAR MGRT 201300Z 00000KT CAVOK 24/19 Q1015 A2997 VOL. STA. MARIA Y SANTIAGUITO EN ACTIVIDAD

More Conditions Fewer Conditions

10-Day Weather Forecast

Almanac

Astronomy

Apr. 20, 2014 Rise Set
Actual Time 6:52 AM CDT 7:24 PM CDT
Civil Twilight 6:30 AM CDT 7:46 PM CDT
Nautical Twilight 6:04 AM CDT 8:12 PM CDT
Astronomical Twilight 5:39 AM CDT 8:38 PM CDT
Moon No Moon Rise 11:31 AM CDT
Length of Visible Light 13h 15m
Length of Day
12h 31m
Tomorrow will be 0m 45s longer.
Waning Gibbous, 70% of the Moon is Illuminated
Today
Waning Gibbous
Apr 22
Last Quarter
Apr 29
New
May 6
First Quarter
May 14
Full

Yesterday's Extremes

Country Highs Country Lows

Community

  • EARLY FOGGY MORNING
    EARLY FOGGY MORNING
  • Easter Greetings
    Easter Greetings
  • Sunny day at the coast-Cape Arago Lighthouse
    Sunny day at the coast-Cape Arago Lighthouse
  • Cherry Blossoms
    Cherry Blossoms
  • White-Crowned Sparrow
    White-Crowned Sparrow

WunderPhotos

Upload Photos

1,703,195 photos uploaded!

Nearby

Snow Depth

Not available.

Coastal Water Temperatures

Place Temperature
No Stations Reporting

Earthquake Activity

City Distance Mag. Time & Date
No recent earthquake activity has been reported nearby.
Minimum magnitude displayed is 2.5.

Nearby Weather Stations

There are no personal weather stations in this area.

What do you think?

We're not finished. Please let us know what you like, what you don't like, and what you are still missing.